sensor_id;sensor_type;location;lat;lon;timestamp;temperature;humidity
10149;DHT22;5115;50.920;6.376;2022-10-17T00:01:42;17.60;99.90
10149;DHT22;5115;50.920;6.376;2022-10-17T00:04:08;17.60;99.90
10149;DHT22;5115;50.920;6.376;2022-10-17T00:06:33;17.60;99.90
10149;DHT22;5115;50.920;6.376;2022-10-17T00:08:59;17.70;99.90
10149;DHT22;5115;50.920;6.376;2022-10-17T00:11:24;17.70;99.90
10149;DHT22;5115;50.920;6.376;2022-10-17T00:13:53;17.70;99.90
10149;DHT22;5115;50.920;6.376;2022-10-17T00:16:23;17.70;99.90
10149;DHT22;5115;50.920;6.376;2022-10-17T00:18:49;17.60;99.90
10149;DHT22;5115;50.920;6.376;2022-10-17T00:21:19;17.60;99.90
10149;DHT22;5115;50.920;6.376;2022-10-17T00:23:45;17.60;99.90
10149;DHT22;5115;50.920;6.376;2022-10-17T00:26:11;17.60;99.90
10149;DHT22;5115;50.920;6.376;2022-10-17T00:28:37;17.60;99.90
10149;DHT22;5115;50.920;6.376;2022-10-17T00:31:05;17.50;99.90
10149;DHT22;5115;50.920;6.376;2022-10-17T00:33:32;17.50;99.90
10149;DHT22;5115;50.920;6.376;2022-10-17T00:36:16;17.50;99.90
10149;DHT22;5115;50.920;6.376;2022-10-17T00:38:43;17.40;99.90
10149;DHT22;5115;50.920;6.376;2022-10-17T00:41:12;17.50;99.90
10149;DHT22;5115;50.920;6.376;2022-10-17T00:44:02;17.40;99.90
10149;DHT22;5115;50.920;6.376;2022-10-17T00:46:34;17.40;99.90
10149;DHT22;5115;50.920;6.376;2022-10-17T00:49:03;17.40;99.90
10149;DHT22;5115;50.920;6.376;2022-10-17T00:51:45;17.40;99.90
10149;DHT22;5115;50.920;6.376;2022-10-17T00:54:13;17.40;99.90
10149;DHT22;5115;50.920;6.376;2022-10-17T00:56:40;17.40;99.90
10149;DHT22;5115;50.920;6.376;2022-10-17T00:59:10;17.40;99.90
10149;DHT22;5115;50.920;6.376;2022-10-17T01:01:37;17.50;99.90
10149;DHT22;5115;50.920;6.376;2022-10-17T01:04:04;17.40;99.90
10149;DHT22;5115;50.920;6.376;2022-10-17T01:06:29;17.90;99.90
10149;DHT22;5115;50.920;6.376;2022-10-17T01:08:55;17.40;99.90
10149;DHT22;5115;50.920;6.376;2022-10-17T01:16:56;17.40;99.90
10149;DHT22;5115;50.920;6.376;2022-10-17T01:22:21;17.50;99.90
10149;DHT22;5115;50.920;6.376;2022-10-17T01:24:57;17.50;99.90
10149;DHT22;5115;50.920;6.376;2022-10-17T01:27:57;17.50;99.90
10149;DHT22;5115;50.920;6.376;2022-10-17T01:33:16;17.50;99.90
10149;DHT22;5115;50.920;6.376;2022-10-17T01:35:51;17.60;99.90
10149;DHT22;5115;50.920;6.376;2022-10-17T01:38:30;17.60;99.90
10149;DHT22;5115;50.920;6.376;2022-10-17T01:41:07;17.50;99.90
10149;DHT22;5115;50.920;6.376;2022-10-17T01:43:44;17.40;99.90
10149;DHT22;5115;50.920;6.376;2022-10-17T01:46:38;17.40;99.90
10149;DHT22;5115;50.920;6.376;2022-10-17T01:49:07;17.40;99.90
10149;DHT22;5115;50.920;6.376;2022-10-17T01:51:45;17.40;99.90
10149;DHT22;5115;50.920;6.376;2022-10-17T01:54:22;17.40;99.90
10149;DHT22;5115;50.920;6.376;2022-10-17T01:56:53;17.40;99.90
10149;DHT22;5115;50.920;6.376;2022-10-17T01:59:27;17.30;99.90
10149;DHT22;5115;50.920;6.376;2022-10-17T02:01:55;17.40;99.90
10149;DHT22;5115;50.920;6.376;2022-10-17T02:04:23;17.40;99.90
10149;DHT22;5115;50.920;6.376;2022-10-17T02:06:52;17.40;99.90
10149;DHT22;5115;50.920;6.376;2022-10-17T02:09:25;17.50;99.90
10149;DHT22;5115;50.920;6.376;2022-10-17T02:20:29;17.50;99.90
10149;DHT22;5115;50.920;6.376;2022-10-17T02:25:37;17.50;99.90
10149;DHT22;5115;50.920;6.376;2022-10-17T02:28:38;17.50;99.90
10149;DHT22;5115;50.920;6.376;2022-10-17T02:33:43;17.40;99.90
10149;DHT22;5115;50.920;6.376;2022-10-17T02:36:22;17.40;99.90
10149;DHT22;5115;50.920;6.376;2022-10-17T02:38:50;17.50;99.90
10149;DHT22;5115;50.920;6.376;2022-10-17T02:41:18;17.50;99.90
10149;DHT22;5115;50.920;6.376;2022-10-17T02:43:46;17.50;99.90
10149;DHT22;5115;50.920;6.376;2022-10-17T02:46:14;17.60;99.90
10149;DHT22;5115;50.920;6.376;2022-10-17T02:48:49;16.80;99.90
10149;DHT22;5115;50.920;6.376;2022-10-17T02:51:51;17.60;99.90
10149;DHT22;5115;50.920;6.376;2022-10-17T02:56:55;17.60;99.90
10149;DHT22;5115;50.920;6.376;2022-10-17T02:59:24;17.60;99.90
10149;DHT22;5115;50.920;6.376;2022-10-17T03:01:51;17.60;99.90
10149;DHT22;5115;50.920;6.376;2022-10-17T03:04:16;17.70;99.90
10149;DHT22;5115;50.920;6.376;2022-10-17T03:06:44;17.70;99.90
10149;DHT22;5115;50.920;6.376;2022-10-17T03:09:10;17.70;99.90
10149;DHT22;5115;50.920;6.376;2022-10-17T03:11:36;17.70;99.90
10149;DHT22;5115;50.920;6.376;2022-10-17T03:14:02;17.70;99.90
10149;DHT22;5115;50.920;6.376;2022-10-17T03:16:27;17.70;99.90
10149;DHT22;5115;50.920;6.376;2022-10-17T03:18:53;17.60;99.90
10149;DHT22;5115;50.920;6.376;2022-10-17T03:21:18;17.60;99.90
10149;DHT22;5115;50.920;6.376;2022-10-17T03:23:44;17.60;99.90
10149;DHT22;5115;50.920;6.376;2022-10-17T03:26:09;17.70;99.90
10149;DHT22;5115;50.920;6.376;2022-10-17T03:28:35;17.70;99.90
10149;DHT22;5115;50.920;6.376;2022-10-17T03:31:08;17.70;99.90
10149;DHT22;5115;50.920;6.376;2022-10-17T03:33:35;17.70;99.90
10149;DHT22;5115;50.920;6.376;2022-10-17T03:36:05;17.80;99.90
10149;DHT22;5115;50.920;6.376;2022-10-17T03:38:32;17.90;99.90
10149;DHT22;5115;50.920;6.376;2022-10-17T03:40:57;17.80;99.90
10149;DHT22;5115;50.920;6.376;2022-10-17T03:43:23;17.80;99.90
10149;DHT22;5115;50.920;6.376;2022-10-17T03:45:48;17.80;99.90
10149;DHT22;5115;50.920;6.376;2022-10-17T03:48:14;17.90;99.90
10149;DHT22;5115;50.920;6.376;2022-10-17T03:50:39;17.90;99.90
10149;DHT22;5115;50.920;6.376;2022-10-17T03:53:05;18.00;99.90
10149;DHT22;5115;50.920;6.376;2022-10-17T03:55:30;18.00;99.90
10149;DHT22;5115;50.920;6.376;2022-10-17T03:57:56;18.00;99.90
10149;DHT22;5115;50.920;6.376;2022-10-17T04:00:21;18.10;99.90
10149;DHT22;5115;50.920;6.376;2022-10-17T04:02:47;18.10;99.90
10149;DHT22;5115;50.920;6.376;2022-10-17T04:05:12;18.20;99.90
10149;DHT22;5115;50.920;6.376;2022-10-17T04:07:38;18.20;99.90
10149;DHT22;5115;50.920;6.376;2022-10-17T04:10:04;18.20;99.90
10149;DHT22;5115;50.920;6.376;2022-10-17T04:12:30;18.20;99.90
10149;DHT22;5115;50.920;6.376;2022-10-17T04:14:55;18.20;99.90
10149;DHT22;5115;50.920;6.376;2022-10-17T04:17:21;18.20;99.90
10149;DHT22;5115;50.920;6.376;2022-10-17T04:19:48;18.20;99.90
10149;DHT22;5115;50.920;6.376;2022-10-17T04:22:13;18.10;99.90
10149;DHT22;5115;50.920;6.376;2022-10-17T04:24:39;18.10;99.90
10149;DHT22;5115;50.920;6.376;2022-10-17T04:27:05;18.10;99.90
10149;DHT22;5115;50.920;6.376;2022-10-17T04:29:30;18.20;99.90
10149;DHT22;5115;50.920;6.376;2022-10-17T04:31:56;18.20;99.90
10149;DHT22;5115;50.920;6.376;2022-10-17T04:34:21;18.20;99.90
10149;DHT22;5115;50.920;6.376;2022-10-17T04:36:47;18.20;99.90
10149;DHT22;5115;50.920;6.376;2022-10-17T04:39:13;19.00;99.90
10149;DHT22;5115;50.920;6.376;2022-10-17T04:41:38;18.20;99.90
10149;DHT22;5115;50.920;6.376;2022-10-17T04:44:04;18.20;99.90
10149;DHT22;5115;50.920;6.376;2022-10-17T04:46:32;18.20;99.90
10149;DHT22;5115;50.920;6.376;2022-10-17T04:48:58;18.20;99.90
10149;DHT22;5115;50.920;6.376;2022-10-17T04:51:23;18.10;99.90
10149;DHT22;5115;50.920;6.376;2022-10-17T04:53:49;18.20;99.90
10149;DHT22;5115;50.920;6.376;2022-10-17T04:56:17;18.20;99.90
10149;DHT22;5115;50.920;6.376;2022-10-17T04:58:43;18.20;99.90
10149;DHT22;5115;50.920;6.376;2022-10-17T05:01:11;18.30;99.90
10149;DHT22;5115;50.920;6.376;2022-10-17T05:03:38;18.30;99.90
10149;DHT22;5115;50.920;6.376;2022-10-17T05:06:11;18.40;99.90
10149;DHT22;5115;50.920;6.376;2022-10-17T05:08:37;18.50;99.90
10149;DHT22;5115;50.920;6.376;2022-10-17T05:11:03;18.50;99.90
10149;DHT22;5115;50.920;6.376;2022-10-17T05:13:30;18.50;99.90
10149;DHT22;5115;50.920;6.376;2022-10-17T05:16:03;18.50;99.90
10149;DHT22;5115;50.920;6.376;2022-10-17T05:18:28;18.50;99.90
10149;DHT22;5115;50.920;6.376;2022-10-17T05:20:55;18.50;99.90
10149;DHT22;5115;50.920;6.376;2022-10-17T05:23:20;18.50;99.90
10149;DHT22;5115;50.920;6.376;2022-10-17T05:25:46;18.50;99.90
10149;DHT22;5115;50.920;6.376;2022-10-17T05:28:11;18.50;99.90
10149;DHT22;5115;50.920;6.376;2022-10-17T05:30:37;18.50;99.90
10149;DHT22;5115;50.920;6.376;2022-10-17T05:33:02;18.60;99.90
10149;DHT22;5115;50.920;6.376;2022-10-17T05:35:28;18.30;99.90
10149;DHT22;5115;50.920;6.376;2022-10-17T05:37:53;18.30;99.90
10149;DHT22;5115;50.920;6.376;2022-10-17T05:40:19;18.30;99.90
10149;DHT22;5115;50.920;6.376;2022-10-17T05:42:46;18.20;99.90
10149;DHT22;5115;50.920;6.376;2022-10-17T05:45:12;18.20;99.90
10149;DHT22;5115;50.920;6.376;2022-10-17T05:47:38;18.10;99.90
10149;DHT22;5115;50.920;6.376;2022-10-17T05:50:04;18.00;99.90
10149;DHT22;5115;50.920;6.376;2022-10-17T05:52:30;17.90;99.90
10149;DHT22;5115;50.920;6.376;2022-10-17T05:54:55;17.80;99.90
10149;DHT22;5115;50.920;6.376;2022-10-17T05:57:24;17.80;99.90
10149;DHT22;5115;50.920;6.376;2022-10-17T05:59:49;17.80;99.90
10149;DHT22;5115;50.920;6.376;2022-10-17T06:02:15;17.80;99.90
10149;DHT22;5115;50.920;6.376;2022-10-17T06:04:40;17.70;99.90
10149;DHT22;5115;50.920;6.376;2022-10-17T06:07:10;17.70;99.90
10149;DHT22;5115;50.920;6.376;2022-10-17T06:09:35;17.70;99.90
10149;DHT22;5115;50.920;6.376;2022-10-17T06:12:01;17.70;99.90
10149;DHT22;5115;50.920;6.376;2022-10-17T06:14:26;17.80;99.90
10149;DHT22;5115;50.920;6.376;2022-10-17T06:16:52;17.80;99.90
10149;DHT22;5115;50.920;6.376;2022-10-17T06:19:17;17.80;99.90
10149;DHT22;5115;50.920;6.376;2022-10-17T06:21:43;17.90;99.90
10149;DHT22;5115;50.920;6.376;2022-10-17T06:24:08;17.90;99.90
10149;DHT22;5115;50.920;6.376;2022-10-17T06:26:34;17.90;99.90
10149;DHT22;5115;50.920;6.376;2022-10-17T06:28:59;18.00;99.90
10149;DHT22;5115;50.920;6.376;2022-10-17T06:31:25;18.20;99.90
10149;DHT22;5115;50.920;6.376;2022-10-17T06:33:51;18.40;99.90
10149;DHT22;5115;50.920;6.376;2022-10-17T06:36:16;18.60;99.90
10149;DHT22;5115;50.920;6.376;2022-10-17T06:38:42;18.30;99.90
10149;DHT22;5115;50.920;6.376;2022-10-17T06:41:10;18.80;99.90
10149;DHT22;5115;50.920;6.376;2022-10-17T06:43:39;18.90;99.90
10149;DHT22;5115;50.920;6.376;2022-10-17T06:46:04;19.10;99.90
10149;DHT22;5115;50.920;6.376;2022-10-17T06:48:30;19.50;99.90
10149;DHT22;5115;50.920;6.376;2022-10-17T06:51:02;19.80;99.90
10149;DHT22;5115;50.920;6.376;2022-10-17T06:53:29;20.00;99.90
10149;DHT22;5115;50.920;6.376;2022-10-17T06:55:55;20.20;99.90
10149;DHT22;5115;50.920;6.376;2022-10-17T06:58:26;20.20;99.90
10149;DHT22;5115;50.920;6.376;2022-10-17T07:01:00;20.50;99.90
10149;DHT22;5115;50.920;6.376;2022-10-17T07:03:26;20.80;99.90
10149;DHT22;5115;50.920;6.376;2022-10-17T07:05:53;20.80;99.90
10149;DHT22;5115;50.920;6.376;2022-10-17T07:08:18;20.80;99.90
10149;DHT22;5115;50.920;6.376;2022-10-17T07:10:44;20.90;99.90
10149;DHT22;5115;50.920;6.376;2022-10-17T07:13:09;20.90;99.90
10149;DHT22;5115;50.920;6.376;2022-10-17T07:15:36;21.00;99.90
10149;DHT22;5115;50.920;6.376;2022-10-17T07:18:02;21.30;99.90
10149;DHT22;5115;50.920;6.376;2022-10-17T07:20:28;21.40;99.90
10149;DHT22;5115;50.920;6.376;2022-10-17T07:22:53;21.70;99.90
10149;DHT22;5115;50.920;6.376;2022-10-17T07:25:19;22.10;99.90
10149;DHT22;5115;50.920;6.376;2022-10-17T07:27:44;22.70;99.90
10149;DHT22;5115;50.920;6.376;2022-10-17T07:30:10;23.40;99.90
10149;DHT22;5115;50.920;6.376;2022-10-17T07:32:36;24.00;99.90
10149;DHT22;5115;50.920;6.376;2022-10-17T07:35:02;24.50;99.90
10149;DHT22;5115;50.920;6.376;2022-10-17T07:37:28;24.80;99.90
10149;DHT22;5115;50.920;6.376;2022-10-17T07:39:54;24.70;99.90
10149;DHT22;5115;50.920;6.376;2022-10-17T07:42:21;24.90;99.90
10149;DHT22;5115;50.920;6.376;2022-10-17T07:44:46;25.00;99.90
10149;DHT22;5115;50.920;6.376;2022-10-17T07:47:12;25.20;99.90
10149;DHT22;5115;50.920;6.376;2022-10-17T07:49:37;25.40;99.90
10149;DHT22;5115;50.920;6.376;2022-10-17T07:52:12;25.20;99.90
10149;DHT22;5115;50.920;6.376;2022-10-17T07:54:39;25.20;99.90
10149;DHT22;5115;50.920;6.376;2022-10-17T07:57:04;25.50;99.90
10149;DHT22;5115;50.920;6.376;2022-10-17T07:59:32;25.20;99.90
10149;DHT22;5115;50.920;6.376;2022-10-17T08:01:58;25.30;99.90
10149;DHT22;5115;50.920;6.376;2022-10-17T08:04:24;25.30;99.90
10149;DHT22;5115;50.920;6.376;2022-10-17T08:06:50;25.70;99.90
10149;DHT22;5115;50.920;6.376;2022-10-17T08:09:16;25.60;99.90
10149;DHT22;5115;50.920;6.376;2022-10-17T08:11:41;25.80;99.90
10149;DHT22;5115;50.920;6.376;2022-10-17T08:14:10;25.40;99.90
10149;DHT22;5115;50.920;6.376;2022-10-17T08:16:37;24.80;99.90
10149;DHT22;5115;50.920;6.376;2022-10-17T08:19:03;24.30;99.90
10149;DHT22;5115;50.920;6.376;2022-10-17T08:21:29;23.70;99.90
10149;DHT22;5115;50.920;6.376;2022-10-17T08:23:55;23.20;99.90
10149;DHT22;5115;50.920;6.376;2022-10-17T08:26:21;23.00;99.90
10149;DHT22;5115;50.920;6.376;2022-10-17T08:28:47;22.80;99.90
10149;DHT22;5115;50.920;6.376;2022-10-17T08:31:15;22.70;99.90
10149;DHT22;5115;50.920;6.376;2022-10-17T08:33:45;22.40;99.90
10149;DHT22;5115;50.920;6.376;2022-10-17T08:36:17;22.20;99.90
10149;DHT22;5115;50.920;6.376;2022-10-17T08:38:43;22.20;99.90
10149;DHT22;5115;50.920;6.376;2022-10-17T08:47:02;22.20;99.90
10149;DHT22;5115;50.920;6.376;2022-10-17T08:49:44;22.10;99.90
10149;DHT22;5115;50.920;6.376;2022-10-17T08:54:52;22.10;99.90
10149;DHT22;5115;50.920;6.376;2022-10-17T08:57:17;22.10;99.90
10149;DHT22;5115;50.920;6.376;2022-10-17T08:59:44;22.20;99.90
10149;DHT22;5115;50.920;6.376;2022-10-17T09:02:20;22.40;99.90
10149;DHT22;5115;50.920;6.376;2022-10-17T09:10:16;22.90;99.90
10149;DHT22;5115;50.920;6.376;2022-10-17T09:18:26;22.50;99.90
10149;DHT22;5115;50.920;6.376;2022-10-17T09:21:18;22.30;99.90
10149;DHT22;5115;50.920;6.376;2022-10-17T09:26:11;22.00;99.90
10149;DHT22;5115;50.920;6.376;2022-10-17T09:28:39;21.90;99.90
10149;DHT22;5115;50.920;6.376;2022-10-17T09:33:41;21.80;99.90
10149;DHT22;5115;50.920;6.376;2022-10-17T09:36:12;21.80;99.90
10149;DHT22;5115;50.920;6.376;2022-10-17T09:38:51;21.90;99.90
10149;DHT22;5115;50.920;6.376;2022-10-17T09:41:46;21.80;99.90
10149;DHT22;5115;50.920;6.376;2022-10-17T09:44:24;21.80;99.90
10149;DHT22;5115;50.920;6.376;2022-10-17T09:49:45;21.80;99.90
10149;DHT22;5115;50.920;6.376;2022-10-17T09:52:27;21.80;99.90
10149;DHT22;5115;50.920;6.376;2022-10-17T09:54:59;21.80;99.90
10149;DHT22;5115;50.920;6.376;2022-10-17T09:57:26;21.80;99.90
10149;DHT22;5115;50.920;6.376;2022-10-17T09:59:58;21.80;99.90
10149;DHT22;5115;50.920;6.376;2022-10-17T10:02:25;21.80;99.90
10149;DHT22;5115;50.920;6.376;2022-10-17T10:04:55;21.70;99.90
10149;DHT22;5115;50.920;6.376;2022-10-17T10:07:26;21.70;99.90
10149;DHT22;5115;50.920;6.376;2022-10-17T10:09:52;21.70;99.90
10149;DHT22;5115;50.920;6.376;2022-10-17T10:12:27;21.70;99.90
10149;DHT22;5115;50.920;6.376;2022-10-17T10:14:54;21.70;99.90
10149;DHT22;5115;50.920;6.376;2022-10-17T10:17:37;21.60;99.90
10149;DHT22;5115;50.920;6.376;2022-10-17T10:20:29;21.60;99.90
10149;DHT22;5115;50.920;6.376;2022-10-17T10:23:15;21.50;99.90
10149;DHT22;5115;50.920;6.376;2022-10-17T10:25:56;21.50;99.90
10149;DHT22;5115;50.920;6.376;2022-10-17T10:28:34;21.60;99.90
10149;DHT22;5115;50.920;6.376;2022-10-17T10:31:03;21.50;99.90
10149;DHT22;5115;50.920;6.376;2022-10-17T10:33:31;21.50;99.90
10149;DHT22;5115;50.920;6.376;2022-10-17T10:36:02;21.50;99.90
10149;DHT22;5115;50.920;6.376;2022-10-17T10:38:31;21.50;99.90
10149;DHT22;5115;50.920;6.376;2022-10-17T10:43:44;21.40;99.90
10149;DHT22;5115;50.920;6.376;2022-10-17T10:46:20;21.40;99.90
10149;DHT22;5115;50.920;6.376;2022-10-17T10:48:57;21.30;99.90
10149;DHT22;5115;50.920;6.376;2022-10-17T10:51:53;21.30;99.90
10149;DHT22;5115;50.920;6.376;2022-10-17T10:54:35;21.30;99.90
10149;DHT22;5115;50.920;6.376;2022-10-17T10:57:05;21.40;99.90
10149;DHT22;5115;50.920;6.376;2022-10-17T11:02:20;21.40;99.90
10149;DHT22;5115;50.920;6.376;2022-10-17T11:07:40;21.50;99.90
10149;DHT22;5115;50.920;6.376;2022-10-17T11:10:15;21.50;99.90
10149;DHT22;5115;50.920;6.376;2022-10-17T11:16:13;21.60;99.90
10149;DHT22;5115;50.920;6.376;2022-10-17T11:18:58;21.60;99.90
10149;DHT22;5115;50.920;6.376;2022-10-17T11:21:58;21.60;99.90
10149;DHT22;5115;50.920;6.376;2022-10-17T11:24:33;21.70;99.90
10149;DHT22;5115;50.920;6.376;2022-10-17T11:27:03;21.70;99.90
10149;DHT22;5115;50.920;6.376;2022-10-17T11:29:31;21.70;99.90
10149;DHT22;5115;50.920;6.376;2022-10-17T11:32:14;21.70;99.90
10149;DHT22;5115;50.920;6.376;2022-10-17T11:34:53;21.70;99.90
10149;DHT22;5115;50.920;6.376;2022-10-17T11:37:27;21.70;99.90
10149;DHT22;5115;50.920;6.376;2022-10-17T11:39:59;21.60;99.90
10149;DHT22;5115;50.920;6.376;2022-10-17T11:42:29;21.70;99.90
10149;DHT22;5115;50.920;6.376;2022-10-17T11:45:13;21.80;99.90
10149;DHT22;5115;50.920;6.376;2022-10-17T11:47:57;21.70;99.90
10149;DHT22;5115;50.920;6.376;2022-10-17T11:50:30;21.70;99.90
10149;DHT22;5115;50.920;6.376;2022-10-17T11:53:02;21.60;99.90
10149;DHT22;5115;50.920;6.376;2022-10-17T11:55:30;21.70;99.90
10149;DHT22;5115;50.920;6.376;2022-10-17T12:01:12;21.60;99.90
10149;DHT22;5115;50.920;6.376;2022-10-17T12:11:59;21.80;99.90
10149;DHT22;5115;50.920;6.376;2022-10-17T12:14:39;21.80;99.90
10149;DHT22;5115;50.920;6.376;2022-10-17T12:17:22;21.90;99.90
10149;DHT22;5115;50.920;6.376;2022-10-17T12:19:49;21.90;99.90
10149;DHT22;5115;50.920;6.376;2022-10-17T12:22:20;22.00;99.90
10149;DHT22;5115;50.920;6.376;2022-10-17T12:24:57;22.00;99.90
10149;DHT22;5115;50.920;6.376;2022-10-17T12:27:39;22.00;99.90
10149;DHT22;5115;50.920;6.376;2022-10-17T12:32:36;21.90;99.90
10149;DHT22;5115;50.920;6.376;2022-10-17T12:35:02;22.10;99.90
10149;DHT22;5115;50.920;6.376;2022-10-17T12:40:53;22.00;99.90
10149;DHT22;5115;50.920;6.376;2022-10-17T12:45:46;21.90;99.90
10149;DHT22;5115;50.920;6.376;2022-10-17T12:51:18;22.00;99.90
10149;DHT22;5115;50.920;6.376;2022-10-17T12:53:48;22.00;99.90
10149;DHT22;5115;50.920;6.376;2022-10-17T12:56:29;21.90;99.90
10149;DHT22;5115;50.920;6.376;2022-10-17T12:58:57;22.00;99.90
10149;DHT22;5115;50.920;6.376;2022-10-17T13:01:36;22.10;99.90
10149;DHT22;5115;50.920;6.376;2022-10-17T13:04:02;22.10;99.90
10149;DHT22;5115;50.920;6.376;2022-10-17T13:06:32;22.10;99.90
10149;DHT22;5115;50.920;6.376;2022-10-17T13:09:07;22.10;99.90
10149;DHT22;5115;50.920;6.376;2022-10-17T13:11:38;22.10;99.90
10149;DHT22;5115;50.920;6.376;2022-10-17T13:14:11;22.00;99.90
10149;DHT22;5115;50.920;6.376;2022-10-17T13:16:39;22.00;99.90
10149;DHT22;5115;50.920;6.376;2022-10-17T13:19:17;22.00;99.90
10149;DHT22;5115;50.920;6.376;2022-10-17T13:21:54;22.00;99.90
10149;DHT22;5115;50.920;6.376;2022-10-17T13:24:25;22.00;99.90
10149;DHT22;5115;50.920;6.376;2022-10-17T13:26:52;22.00;99.90
10149;DHT22;5115;50.920;6.376;2022-10-17T13:29:17;22.00;99.90
10149;DHT22;5115;50.920;6.376;2022-10-17T13:31:54;22.00;99.90
10149;DHT22;5115;50.920;6.376;2022-10-17T13:34:24;22.00;99.90
10149;DHT22;5115;50.920;6.376;2022-10-17T13:37:01;22.10;99.90
10149;DHT22;5115;50.920;6.376;2022-10-17T13:39:33;22.00;99.90
10149;DHT22;5115;50.920;6.376;2022-10-17T13:42:00;22.00;99.90
10149;DHT22;5115;50.920;6.376;2022-10-17T13:44:31;22.00;99.90
10149;DHT22;5115;50.920;6.376;2022-10-17T13:46:57;22.10;99.90
10149;DHT22;5115;50.920;6.376;2022-10-17T13:52:00;21.90;99.90
10149;DHT22;5115;50.920;6.376;2022-10-17T13:56:59;21.90;99.90
10149;DHT22;5115;50.920;6.376;2022-10-17T13:59:31;22.00;99.90
10149;DHT22;5115;50.920;6.376;2022-10-17T14:01:57;22.00;99.90
10149;DHT22;5115;50.920;6.376;2022-10-17T14:04:25;22.00;99.90
10149;DHT22;5115;50.920;6.376;2022-10-17T14:06:51;22.00;99.90
10149;DHT22;5115;50.920;6.376;2022-10-17T14:09:28;22.00;99.90
10149;DHT22;5115;50.920;6.376;2022-10-17T14:14:26;22.00;99.90
10149;DHT22;5115;50.920;6.376;2022-10-17T14:16:53;22.50;99.90
10149;DHT22;5115;50.920;6.376;2022-10-17T14:19:32;21.90;99.90
10149;DHT22;5115;50.920;6.376;2022-10-17T14:22:26;22.00;99.90
10149;DHT22;5115;50.920;6.376;2022-10-17T14:24:52;21.90;99.90
10149;DHT22;5115;50.920;6.376;2022-10-17T14:30:00;21.90;99.90
10149;DHT22;5115;50.920;6.376;2022-10-17T14:32:34;21.80;99.90
10149;DHT22;5115;50.920;6.376;2022-10-17T14:35:02;21.80;99.90
10149;DHT22;5115;50.920;6.376;2022-10-17T14:37:42;21.80;99.90
10149;DHT22;5115;50.920;6.376;2022-10-17T14:40:20;21.80;99.90
10149;DHT22;5115;50.920;6.376;2022-10-17T14:42:48;21.80;99.90
10149;DHT22;5115;50.920;6.376;2022-10-17T14:45:26;21.70;99.90
10149;DHT22;5115;50.920;6.376;2022-10-17T14:47:54;21.70;99.90
10149;DHT22;5115;50.920;6.376;2022-10-17T14:55:33;21.60;99.90
10149;DHT22;5115;50.920;6.376;2022-10-17T14:58:00;21.60;99.90
10149;DHT22;5115;50.920;6.376;2022-10-17T15:00:26;21.50;99.90
10149;DHT22;5115;50.920;6.376;2022-10-17T15:02:53;21.50;99.90
10149;DHT22;5115;50.920;6.376;2022-10-17T15:05:19;21.40;99.90
10149;DHT22;5115;50.920;6.376;2022-10-17T15:07:45;21.40;99.90
10149;DHT22;5115;50.920;6.376;2022-10-17T15:12:46;21.40;99.90
10149;DHT22;5115;50.920;6.376;2022-10-17T15:15:11;21.30;99.90
10149;DHT22;5115;50.920;6.376;2022-10-17T15:17:37;21.30;99.90
10149;DHT22;5115;50.920;6.376;2022-10-17T15:20:05;21.20;99.90
10149;DHT22;5115;50.920;6.376;2022-10-17T15:22:36;21.20;99.90
10149;DHT22;5115;50.920;6.376;2022-10-17T15:25:01;21.00;99.90
10149;DHT22;5115;50.920;6.376;2022-10-17T15:27:28;20.90;99.90
10149;DHT22;5115;50.920;6.376;2022-10-17T15:29:55;20.80;99.90
10149;DHT22;5115;50.920;6.376;2022-10-17T15:32:20;20.70;99.90
10149;DHT22;5115;50.920;6.376;2022-10-17T15:34:46;20.50;99.90
10149;DHT22;5115;50.920;6.376;2022-10-17T15:37:18;20.40;99.90
10149;DHT22;5115;50.920;6.376;2022-10-17T15:39:50;20.40;99.90
10149;DHT22;5115;50.920;6.376;2022-10-17T15:42:21;20.30;99.90
10149;DHT22;5115;50.920;6.376;2022-10-17T15:44:46;20.20;99.90
10149;DHT22;5115;50.920;6.376;2022-10-17T15:47:28;20.10;99.90
10149;DHT22;5115;50.920;6.376;2022-10-17T15:49:55;20.10;99.90
10149;DHT22;5115;50.920;6.376;2022-10-17T15:52:21;20.00;99.90
10149;DHT22;5115;50.920;6.376;2022-10-17T15:54:47;20.00;99.90
10149;DHT22;5115;50.920;6.376;2022-10-17T15:57:19;20.00;99.90
10149;DHT22;5115;50.920;6.376;2022-10-17T15:59:46;19.90;99.90
10149;DHT22;5115;50.920;6.376;2022-10-17T16:02:13;19.90;99.90
10149;DHT22;5115;50.920;6.376;2022-10-17T16:04:39;19.80;99.90
10149;DHT22;5115;50.920;6.376;2022-10-17T16:07:05;19.70;99.90
10149;DHT22;5115;50.920;6.376;2022-10-17T16:09:32;19.70;99.90
10149;DHT22;5115;50.920;6.376;2022-10-17T16:11:59;19.70;99.90
10149;DHT22;5115;50.920;6.376;2022-10-17T16:14:25;19.70;99.90
10149;DHT22;5115;50.920;6.376;2022-10-17T16:16:51;19.60;99.90
10149;DHT22;5115;50.920;6.376;2022-10-17T16:19:16;19.50;99.90
10149;DHT22;5115;50.920;6.376;2022-10-17T16:21:42;19.50;99.90
10149;DHT22;5115;50.920;6.376;2022-10-17T16:24:11;19.40;99.90
10149;DHT22;5115;50.920;6.376;2022-10-17T16:26:38;19.30;99.90
10149;DHT22;5115;50.920;6.376;2022-10-17T16:29:04;19.30;99.90
10149;DHT22;5115;50.920;6.376;2022-10-17T16:31:33;19.30;99.90
10149;DHT22;5115;50.920;6.376;2022-10-17T16:34:00;19.40;99.90
10149;DHT22;5115;50.920;6.376;2022-10-17T16:36:25;19.40;99.90
10149;DHT22;5115;50.920;6.376;2022-10-17T16:38:51;19.30;99.90
10149;DHT22;5115;50.920;6.376;2022-10-17T16:41:30;19.20;99.90
10149;DHT22;5115;50.920;6.376;2022-10-17T16:43:57;19.20;99.90
10149;DHT22;5115;50.920;6.376;2022-10-17T16:46:25;19.20;99.90
10149;DHT22;5115;50.920;6.376;2022-10-17T16:48:51;19.10;99.90
10149;DHT22;5115;50.920;6.376;2022-10-17T16:51:18;19.10;99.90
10149;DHT22;5115;50.920;6.376;2022-10-17T16:53:45;19.10;99.90
10149;DHT22;5115;50.920;6.376;2022-10-17T16:56:13;19.10;99.90
10149;DHT22;5115;50.920;6.376;2022-10-17T16:58:40;19.10;99.90
10149;DHT22;5115;50.920;6.376;2022-10-17T17:01:13;19.10;99.90
10149;DHT22;5115;50.920;6.376;2022-10-17T17:03:41;19.10;99.90
10149;DHT22;5115;50.920;6.376;2022-10-17T17:06:10;19.10;99.90
10149;DHT22;5115;50.920;6.376;2022-10-17T17:08:36;19.20;99.90
10149;DHT22;5115;50.920;6.376;2022-10-17T17:11:05;19.10;99.90
10149;DHT22;5115;50.920;6.376;2022-10-17T17:13:31;19.20;99.90
10149;DHT22;5115;50.920;6.376;2022-10-17T17:16:05;19.20;99.90
10149;DHT22;5115;50.920;6.376;2022-10-17T17:18:31;19.10;99.90
10149;DHT22;5115;50.920;6.376;2022-10-17T17:21:01;19.10;99.90
10149;DHT22;5115;50.920;6.376;2022-10-17T17:23:27;19.10;99.90
10149;DHT22;5115;50.920;6.376;2022-10-17T17:25:58;19.00;99.90
10149;DHT22;5115;50.920;6.376;2022-10-17T17:28:24;19.00;99.90
10149;DHT22;5115;50.920;6.376;2022-10-17T17:30:50;19.00;99.90
10149;DHT22;5115;50.920;6.376;2022-10-17T17:33:16;19.00;99.90
10149;DHT22;5115;50.920;6.376;2022-10-17T17:35:41;19.00;99.90
10149;DHT22;5115;50.920;6.376;2022-10-17T17:38:07;18.90;99.90
10149;DHT22;5115;50.920;6.376;2022-10-17T17:40:32;19.00;99.90
10149;DHT22;5115;50.920;6.376;2022-10-17T17:42:59;18.90;99.90
10149;DHT22;5115;50.920;6.376;2022-10-17T17:45:25;18.90;99.90
10149;DHT22;5115;50.920;6.376;2022-10-17T17:47:50;18.80;99.90